sensor_id;sensor_type;location;lat;lon;timestamp;pressure;altitude;pressure_sealevel;temperature;humidity
15477;BME280;7840;42.702;23.296;2022-12-08T00:02:06;94867.44;;;3.92;100.00
15477;BME280;7840;42.702;23.296;2022-12-08T00:04:38;94866.66;;;3.92;100.00
15477;BME280;7840;42.702;23.296;2022-12-08T00:07:23;94875.41;;;3.72;100.00
15477;BME280;7840;42.702;23.296;2022-12-08T00:10:10;94880.94;;;3.51;100.00
15477;BME280;7840;42.702;23.296;2022-12-08T00:12:38;94875.31;;;3.41;100.00
15477;BME280;7840;42.702;23.296;2022-12-08T00:15:06;94884.38;;;3.45;100.00
15477;BME280;7840;42.702;23.296;2022-12-08T00:17:37;94884.13;;;3.53;100.00
15477;BME280;7840;42.702;23.296;2022-12-08T00:20:36;94894.19;;;3.56;100.00
15477;BME280;7840;42.702;23.296;2022-12-08T00:23:04;94885.75;;;3.54;100.00
15477;BME280;7840;42.702;23.296;2022-12-08T00:25:34;94893.38;;;3.62;100.00
15477;BME280;7840;42.702;23.296;2022-12-08T00:28:03;94885.69;;;3.67;100.00
15477;BME280;7840;42.702;23.296;2022-12-08T00:30:31;94896.75;;;3.69;100.00
15477;BME280;7840;42.702;23.296;2022-12-08T00:32:58;94894.91;;;3.76;100.00
15477;BME280;7840;42.702;23.296;2022-12-08T00:35:26;94895.75;;;3.70;100.00
15477;BME280;7840;42.702;23.296;2022-12-08T00:37:55;94894.66;;;3.40;100.00
15477;BME280;7840;42.702;23.296;2022-12-08T00:40:25;94905.09;;;3.53;100.00
15477;BME280;7840;42.702;23.296;2022-12-08T00:42:53;94909.06;;;3.62;100.00
15477;BME280;7840;42.702;23.296;2022-12-08T00:45:21;94904.34;;;3.33;100.00
15477;BME280;7840;42.702;23.296;2022-12-08T00:47:50;94903.28;;;3.47;100.00
15477;BME280;7840;42.702;23.296;2022-12-08T00:50:19;94899.84;;;3.53;100.00
15477;BME280;7840;42.702;23.296;2022-12-08T00:52:46;94895.75;;;3.70;100.00
15477;BME280;7840;42.702;23.296;2022-12-08T00:55:16;94903.38;;;3.78;100.00
15477;BME280;7840;42.702;23.296;2022-12-08T00:57:43;94903.34;;;3.85;100.00
15477;BME280;7840;42.702;23.296;2022-12-08T01:00:12;94903.72;;;3.89;100.00
15477;BME280;7840;42.702;23.296;2022-12-08T01:02:40;94905.72;;;3.93;100.00
15477;BME280;7840;42.702;23.296;2022-12-08T01:05:21;94892.47;;;3.81;100.00
15477;BME280;7840;42.702;23.296;2022-12-08T01:07:49;94890.88;;;3.80;100.00
15477;BME280;7840;42.702;23.296;2022-12-08T01:10:21;94894.50;;;3.79;100.00
15477;BME280;7840;42.702;23.296;2022-12-08T01:12:48;94897.69;;;3.88;100.00
15477;BME280;7840;42.702;23.296;2022-12-08T01:15:20;94901.09;;;3.89;100.00
15477;BME280;7840;42.702;23.296;2022-12-08T01:17:50;94895.28;;;3.87;100.00
15477;BME280;7840;42.702;23.296;2022-12-08T01:20:17;94899.69;;;3.93;100.00
15477;BME280;7840;42.702;23.296;2022-12-08T01:22:48;94894.78;;;4.03;100.00
15477;BME280;7840;42.702;23.296;2022-12-08T01:25:17;94888.00;;;3.89;100.00
15477;BME280;7840;42.702;23.296;2022-12-08T01:27:45;94885.56;;;3.94;100.00
15477;BME280;7840;42.702;23.296;2022-12-08T01:30:13;94900.66;;;4.05;100.00
15477;BME280;7840;42.702;23.296;2022-12-08T01:32:40;94888.56;;;3.97;100.00
15477;BME280;7840;42.702;23.296;2022-12-08T01:35:21;94885.31;;;4.02;100.00
15477;BME280;7840;42.702;23.296;2022-12-08T01:37:50;94883.91;;;4.06;100.00
15477;BME280;7840;42.702;23.296;2022-12-08T01:40:19;94889.38;;;3.98;100.00
15477;BME280;7840;42.702;23.296;2022-12-08T01:42:47;94884.38;;;3.90;100.00
15477;BME280;7840;42.702;23.296;2022-12-08T01:45:20;94888.84;;;3.82;100.00
15477;BME280;7840;42.702;23.296;2022-12-08T01:47:59;94880.81;;;3.77;100.00
15477;BME280;7840;42.702;23.296;2022-12-08T01:50:29;94884.84;;;3.80;100.00
15477;BME280;7840;42.702;23.296;2022-12-08T01:53:01;94872.72;;;3.86;100.00
15477;BME280;7840;42.702;23.296;2022-12-08T01:55:37;94871.50;;;3.88;100.00
15477;BME280;7840;42.702;23.296;2022-12-08T01:58:15;94875.94;;;3.88;100.00
15477;BME280;7840;42.702;23.296;2022-12-08T02:00:43;94866.78;;;3.65;100.00
15477;BME280;7840;42.702;23.296;2022-12-08T02:03:14;94865.19;;;3.58;100.00
15477;BME280;7840;42.702;23.296;2022-12-08T02:05:43;94871.59;;;3.68;100.00
15477;BME280;7840;42.702;23.296;2022-12-08T02:08:13;94864.75;;;3.67;100.00
15477;BME280;7840;42.702;23.296;2022-12-08T02:10:47;94871.19;;;3.71;100.00
15477;BME280;7840;42.702;23.296;2022-12-08T02:13:17;94874.97;;;3.75;100.00
15477;BME280;7840;42.702;23.296;2022-12-08T02:15:51;94867.31;;;3.80;100.00
15477;BME280;7840;42.702;23.296;2022-12-08T02:18:33;94862.66;;;3.82;100.00
15477;BME280;7840;42.702;23.296;2022-12-08T02:21:09;94859.84;;;3.77;100.00
15477;BME280;7840;42.702;23.296;2022-12-08T02:23:50;94860.28;;;3.74;100.00
15477;BME280;7840;42.702;23.296;2022-12-08T02:29:54;94861.44;;;3.85;100.00
15477;BME280;7840;42.702;23.296;2022-12-08T02:32:48;94867.88;;;3.82;100.00
15477;BME280;7840;42.702;23.296;2022-12-08T02:35:29;94866.09;;;3.76;100.00
15477;BME280;7840;42.702;23.296;2022-12-08T02:38:10;94865.09;;;3.77;100.00
15477;BME280;7840;42.702;23.296;2022-12-08T02:40:48;94860.66;;;3.78;100.00
15477;BME280;7840;42.702;23.296;2022-12-08T02:43:25;94866.31;;;3.75;100.00
15477;BME280;7840;42.702;23.296;2022-12-08T02:45:58;94861.91;;;3.69;100.00
15477;BME280;7840;42.702;23.296;2022-12-08T02:48:46;94864.75;;;3.67;100.00
15477;BME280;7840;42.702;23.296;2022-12-08T02:51:19;94859.75;;;3.59;100.00
15477;BME280;7840;42.702;23.296;2022-12-08T02:53:51;94864.56;;;3.55;100.00
15477;BME280;7840;42.702;23.296;2022-12-08T02:56:44;94865.66;;;3.35;100.00
15477;BME280;7840;42.702;23.296;2022-12-08T02:59:26;94863.66;;;3.37;100.00
15477;BME280;7840;42.702;23.296;2022-12-08T03:02:22;94863.69;;;3.30;100.00
15477;BME280;7840;42.702;23.296;2022-12-08T03:04:59;94868.13;;;3.29;100.00
15477;BME280;7840;42.702;23.296;2022-12-08T03:07:35;94861.91;;;3.17;100.00
15477;BME280;7840;42.702;23.296;2022-12-08T03:10:09;94856.66;;;3.17;100.00
15477;BME280;7840;42.702;23.296;2022-12-08T03:12:41;94856.81;;;3.29;100.00
15477;BME280;7840;42.702;23.296;2022-12-08T03:15:25;94858.03;;;3.26;100.00
15477;BME280;7840;42.702;23.296;2022-12-08T03:17:57;94854.28;;;3.16;100.00
15477;BME280;7840;42.702;23.296;2022-12-08T03:20:29;94850.44;;;3.18;100.00
15477;BME280;7840;42.702;23.296;2022-12-08T03:23:14;94851.25;;;3.12;100.00
15477;BME280;7840;42.702;23.296;2022-12-08T03:25:50;94850.66;;;3.10;100.00
15477;BME280;7840;42.702;23.296;2022-12-08T03:28:19;94856.06;;;3.15;100.00
15477;BME280;7840;42.702;23.296;2022-12-08T03:30:48;94862.78;;;2.85;100.00
15477;BME280;7840;42.702;23.296;2022-12-08T03:33:22;94857.97;;;2.55;100.00
15477;BME280;7840;42.702;23.296;2022-12-08T03:35:54;94857.78;;;2.37;100.00
15477;BME280;7840;42.702;23.296;2022-12-08T03:38:25;94860.59;;;2.68;100.00
15477;BME280;7840;42.702;23.296;2022-12-08T03:40:54;94846.28;;;2.64;100.00
15477;BME280;7840;42.702;23.296;2022-12-08T03:43:39;94849.72;;;2.45;100.00
15477;BME280;7840;42.702;23.296;2022-12-08T03:46:06;94844.91;;;2.68;100.00
15477;BME280;7840;42.702;23.296;2022-12-08T03:48:34;94847.69;;;2.73;100.00
15477;BME280;7840;42.702;23.296;2022-12-08T03:51:05;94855.50;;;2.87;100.00
15477;BME280;7840;42.702;23.296;2022-12-08T03:53:34;94846.03;;;2.99;100.00
15477;BME280;7840;42.702;23.296;2022-12-08T03:56:04;94852.91;;;2.87;100.00
15477;BME280;7840;42.702;23.296;2022-12-08T03:58:31;94848.84;;;3.04;100.00
15477;BME280;7840;42.702;23.296;2022-12-08T04:00:59;94855.94;;;2.84;100.00
15477;BME280;7840;42.702;23.296;2022-12-08T04:03:29;94862.56;;;2.93;100.00
15477;BME280;7840;42.702;23.296;2022-12-08T04:06:00;94857.28;;;3.06;100.00
15477;BME280;7840;42.702;23.296;2022-12-08T04:08:27;94861.16;;;2.97;100.00
15477;BME280;7840;42.702;23.296;2022-12-08T04:10:57;94858.91;;;2.94;100.00
15477;BME280;7840;42.702;23.296;2022-12-08T04:13:28;94854.88;;;3.11;100.00
15477;BME280;7840;42.702;23.296;2022-12-08T04:15:55;94859.72;;;3.01;100.00
15477;BME280;7840;42.702;23.296;2022-12-08T04:18:23;94870.56;;;3.11;100.00
15477;BME280;7840;42.702;23.296;2022-12-08T04:20:51;94860.09;;;3.11;100.00
15477;BME280;7840;42.702;23.296;2022-12-08T04:23:19;94858.28;;;3.18;100.00
15477;BME280;7840;42.702;23.296;2022-12-08T04:25:47;94857.25;;;3.19;100.00
15477;BME280;7840;42.702;23.296;2022-12-08T04:28:16;94863.69;;;3.30;100.00
15477;BME280;7840;42.702;23.296;2022-12-08T04:30:43;94870.13;;;3.21;100.00
15477;BME280;7840;42.702;23.296;2022-12-08T04:33:14;94864.94;;;3.01;100.00
15477;BME280;7840;42.702;23.296;2022-12-08T04:35:44;94874.03;;;2.79;100.00
15477;BME280;7840;42.702;23.296;2022-12-08T04:38:12;94865.16;;;2.93;100.00
15477;BME280;7840;42.702;23.296;2022-12-08T04:40:40;94865.13;;;3.19;100.00
15477;BME280;7840;42.702;23.296;2022-12-08T04:43:07;94875.00;;;3.04;100.00
15477;BME280;7840;42.702;23.296;2022-12-08T04:45:38;94871.63;;;2.90;100.00
15477;BME280;7840;42.702;23.296;2022-12-08T04:48:20;94854.13;;;2.78;100.00
15477;BME280;7840;42.702;23.296;2022-12-08T04:50:48;94868.44;;;2.75;100.00
15477;BME280;7840;42.702;23.296;2022-12-08T04:53:16;94874.47;;;2.76;100.00
15477;BME280;7840;42.702;23.296;2022-12-08T04:55:45;94867.41;;;2.96;100.00
15477;BME280;7840;42.702;23.296;2022-12-08T04:58:16;94865.69;;;3.21;100.00
15477;BME280;7840;42.702;23.296;2022-12-08T05:00:48;94869.72;;;3.31;100.00
15477;BME280;7840;42.702;23.296;2022-12-08T05:03:18;94871.13;;;3.33;100.00
15477;BME280;7840;42.702;23.296;2022-12-08T05:05:47;94879.75;;;3.40;100.00
15477;BME280;7840;42.702;23.296;2022-12-08T05:08:14;94879.81;;;3.14;100.00
15477;BME280;7840;42.702;23.296;2022-12-08T05:10:44;94896.34;;;2.88;100.00
15477;BME280;7840;42.702;23.296;2022-12-08T05:13:12;94894.38;;;2.77;100.00
15477;BME280;7840;42.702;23.296;2022-12-08T05:15:43;94891.16;;;2.74;100.00
15477;BME280;7840;42.702;23.296;2022-12-08T05:18:16;94886.91;;;2.73;100.00
15477;BME280;7840;42.702;23.296;2022-12-08T05:20:51;94883.91;;;2.77;100.00
15477;BME280;7840;42.702;23.296;2022-12-08T05:23:18;94887.53;;;2.76;100.00
15477;BME280;7840;42.702;23.296;2022-12-08T05:25:46;94893.56;;;2.76;100.00
15477;BME280;7840;42.702;23.296;2022-12-08T05:28:13;94884.91;;;2.82;100.00
15477;BME280;7840;42.702;23.296;2022-12-08T05:30:41;94883.66;;;3.05;100.00
15477;BME280;7840;42.702;23.296;2022-12-08T05:33:09;94894.72;;;3.13;100.00
15477;BME280;7840;42.702;23.296;2022-12-08T05:35:38;94897.53;;;3.18;100.00
15477;BME280;7840;42.702;23.296;2022-12-08T05:38:06;94900.78;;;2.87;100.00
15477;BME280;7840;42.702;23.296;2022-12-08T05:40:36;94900.78;;;2.94;100.00
15477;BME280;7840;42.702;23.296;2022-12-08T05:43:03;94902.78;;;3.05;100.00
15477;BME280;7840;42.702;23.296;2022-12-08T05:45:36;94901.53;;;3.21;100.00
15477;BME280;7840;42.702;23.296;2022-12-08T05:48:06;94899.09;;;3.33;100.00
15477;BME280;7840;42.702;23.296;2022-12-08T05:50:51;94896.69;;;3.38;100.00
15477;BME280;7840;42.702;23.296;2022-12-08T05:53:31;94898.09;;;3.27;100.00
15477;BME280;7840;42.702;23.296;2022-12-08T05:55:58;94915.22;;;3.29;100.00
15477;BME280;7840;42.702;23.296;2022-12-08T05:58:26;94913.47;;;3.10;100.00
15477;BME280;7840;42.702;23.296;2022-12-08T06:00:54;94912.44;;;3.11;100.00
15477;BME280;7840;42.702;23.296;2022-12-08T06:03:22;94913.47;;;3.10;100.00
15477;BME280;7840;42.702;23.296;2022-12-08T06:05:59;94926.13;;;2.80;100.00
15477;BME280;7840;42.702;23.296;2022-12-08T06:08:29;94929.56;;;2.67;100.00
15477;BME280;7840;42.702;23.296;2022-12-08T06:10:59;94919.72;;;2.69;100.00
15477;BME280;7840;42.702;23.296;2022-12-08T06:13:28;94926.97;;;2.54;100.00
15477;BME280;7840;42.702;23.296;2022-12-08T06:16:01;94921.72;;;2.81;100.00
15477;BME280;7840;42.702;23.296;2022-12-08T06:18:35;94921.72;;;2.81;100.00
15477;BME280;7840;42.702;23.296;2022-12-08T06:21:16;94922.13;;;2.97;100.00
15477;BME280;7840;42.702;23.296;2022-12-08T06:26:14;94934.97;;;3.25;100.00
15477;BME280;7840;42.702;23.296;2022-12-08T06:28:56;94933.94;;;3.26;100.00
15477;BME280;7840;42.702;23.296;2022-12-08T06:31:36;94931.34;;;3.20;100.00
15477;BME280;7840;42.702;23.296;2022-12-08T06:34:07;94928.94;;;3.18;100.00
15477;BME280;7840;42.702;23.296;2022-12-08T06:36:37;94923.28;;;3.28;100.00
15477;BME280;7840;42.702;23.296;2022-12-08T06:39:05;94915.63;;;3.26;100.00
15477;BME280;7840;42.702;23.296;2022-12-08T06:41:32;94909.88;;;3.63;100.00
15477;BME280;7840;42.702;23.296;2022-12-08T06:44:20;94916.63;;;3.90;100.00
15477;BME280;7840;42.702;23.296;2022-12-08T06:46:48;94915.34;;;4.06;100.00
15477;BME280;7840;42.702;23.296;2022-12-08T06:49:15;94921.38;;;4.13;100.00
15477;BME280;7840;42.702;23.296;2022-12-08T06:51:44;94916.19;;;4.31;100.00
15477;BME280;7840;42.702;23.296;2022-12-08T06:54:12;94913.94;;;4.42;100.00
15477;BME280;7840;42.702;23.296;2022-12-08T06:56:40;94920.94;;;4.48;100.00
15477;BME280;7840;42.702;23.296;2022-12-08T06:59:08;94925.94;;;4.56;100.00
15477;BME280;7840;42.702;23.296;2022-12-08T07:01:35;94932.97;;;4.24;100.00
15477;BME280;7840;42.702;23.296;2022-12-08T07:04:06;94937.22;;;3.80;100.00
15477;BME280;7840;42.702;23.296;2022-12-08T07:06:34;94945.75;;;3.62;100.00
15477;BME280;7840;42.702;23.296;2022-12-08T07:09:05;94960.66;;;3.55;100.00
15477;BME280;7840;42.702;23.296;2022-12-08T07:11:37;94950.97;;;3.69;100.00
15477;BME280;7840;42.702;23.296;2022-12-08T07:14:06;94953.31;;;3.83;100.00
15477;BME280;7840;42.702;23.296;2022-12-08T07:16:33;94955.53;;;3.87;100.00
15477;BME280;7840;42.702;23.296;2022-12-08T07:19:01;94959.28;;;3.52;100.00
15477;BME280;7840;42.702;23.296;2022-12-08T07:21:29;94957.84;;;3.50;100.00
15477;BME280;7840;42.702;23.296;2022-12-08T07:24:00;94955.03;;;3.58;100.00
15477;BME280;7840;42.702;23.296;2022-12-08T07:26:32;94954.22;;;3.64;100.00
15477;BME280;7840;42.702;23.296;2022-12-08T07:29:14;94959.78;;;3.88;100.00
15477;BME280;7840;42.702;23.296;2022-12-08T07:31:41;94963.34;;;4.00;100.00
15477;BME280;7840;42.702;23.296;2022-12-08T07:34:23;94966.84;;;4.25;100.00
15477;BME280;7840;42.702;23.296;2022-12-08T07:36:50;94963.75;;;4.42;100.00
15477;BME280;7840;42.702;23.296;2022-12-08T07:39:18;94959.50;;;4.72;100.00
15477;BME280;7840;42.702;23.296;2022-12-08T07:41:50;94967.19;;;4.99;100.00
15477;BME280;7840;42.702;23.296;2022-12-08T07:44:34;94969.03;;;5.23;100.00
15477;BME280;7840;42.702;23.296;2022-12-08T07:47:02;94973.59;;;5.53;100.00
15477;BME280;7840;42.702;23.296;2022-12-08T07:49:33;94965.28;;;5.74;100.00
15477;BME280;7840;42.702;23.296;2022-12-08T07:52:02;94976.88;;;5.91;100.00
15477;BME280;7840;42.702;23.296;2022-12-08T07:54:32;94981.53;;;6.08;100.00
15477;BME280;7840;42.702;23.296;2022-12-08T07:57:01;94984.44;;;5.99;100.00
15477;BME280;7840;42.702;23.296;2022-12-08T07:59:31;94984.56;;;6.23;100.00
15477;BME280;7840;42.702;23.296;2022-12-08T08:02:16;94986.88;;;6.31;100.00
15477;BME280;7840;42.702;23.296;2022-12-08T08:04:48;94983.88;;;6.46;100.00
15477;BME280;7840;42.702;23.296;2022-12-08T08:07:16;94987.09;;;6.48;100.00
15477;BME280;7840;42.702;23.296;2022-12-08T08:09:48;94985.34;;;6.72;100.00
15477;BME280;7840;42.702;23.296;2022-12-08T08:12:32;94983.72;;;7.01;100.00
15477;BME280;7840;42.702;23.296;2022-12-08T08:15:01;94983.50;;;7.26;100.00
15477;BME280;7840;42.702;23.296;2022-12-08T08:17:30;94982.13;;;7.47;100.00
15477;BME280;7840;42.702;23.296;2022-12-08T08:19:58;94989.94;;;7.53;100.00
15477;BME280;7840;42.702;23.296;2022-12-08T08:22:30;94989.25;;;7.46;100.00
15477;BME280;7840;42.702;23.296;2022-12-08T08:25:00;94993.63;;;7.76;100.00
15477;BME280;7840;42.702;23.296;2022-12-08T08:27:38;94998.19;;;7.92;100.00
15477;BME280;7840;42.702;23.296;2022-12-08T08:30:23;95008.25;;;7.95;100.00
15477;BME280;7840;42.702;23.296;2022-12-08T08:32:50;95001.19;;;7.84;100.00
15477;BME280;7840;42.702;23.296;2022-12-08T08:35:18;94998.31;;;7.74;100.00
15477;BME280;7840;42.702;23.296;2022-12-08T08:37:49;94996.25;;;7.76;100.00
15477;BME280;7840;42.702;23.296;2022-12-08T08:40:17;95000.25;;;7.66;100.00
15477;BME280;7840;42.702;23.296;2022-12-08T08:42:46;94992.47;;;7.72;100.00
15477;BME280;7840;42.702;23.296;2022-12-08T08:45:14;94989.25;;;7.46;100.00
15477;BME280;7840;42.702;23.296;2022-12-08T08:47:43;94987.31;;;7.65;100.00
15477;BME280;7840;42.702;23.296;2022-12-08T08:50:11;94980.88;;;7.84;100.00
15477;BME280;7840;42.702;23.296;2022-12-08T08:52:38;94983.28;;;7.86;100.00
15477;BME280;7840;42.702;23.296;2022-12-08T08:55:07;94987.38;;;8.05;100.00
15477;BME280;7840;42.702;23.296;2022-12-08T08:57:34;94983.44;;;8.19;100.00
15477;BME280;7840;42.702;23.296;2022-12-08T09:00:04;94987.78;;;8.26;100.00
15477;BME280;7840;42.702;23.296;2022-12-08T09:02:35;94977.69;;;8.22;100.00
15477;BME280;7840;42.702;23.296;2022-12-08T09:05:03;94977.75;;;7.99;100.00
15477;BME280;7840;42.702;23.296;2022-12-08T09:07:31;94983.50;;;7.96;100.00
15477;BME280;7840;42.702;23.296;2022-12-08T09:09:59;94983.50;;;7.96;100.00
15477;BME280;7840;42.702;23.296;2022-12-08T09:12:26;94975.91;;;8.11;100.00
15477;BME280;7840;42.702;23.296;2022-12-08T09:14:54;94968.34;;;8.03;100.00
15477;BME280;7840;42.702;23.296;2022-12-08T09:17:27;94963.41;;;7.95;100.00
15477;BME280;7840;42.702;23.296;2022-12-08T09:19:54;94966.03;;;8.07;100.00
15477;BME280;7840;42.702;23.296;2022-12-08T09:22:36;94967.47;;;7.86;100.00
15477;BME280;7840;42.702;23.296;2022-12-08T09:25:04;94965.66;;;7.51;100.00
15477;BME280;7840;42.702;23.296;2022-12-08T09:27:34;94961.75;;;7.65;100.00
15477;BME280;7840;42.702;23.296;2022-12-08T09:30:02;94961.75;;;7.65;100.00
15477;BME280;7840;42.702;23.296;2022-12-08T09:32:32;94955.16;;;8.03;100.00
15477;BME280;7840;42.702;23.296;2022-12-08T09:35:00;94954.53;;;8.25;100.00
15477;BME280;7840;42.702;23.296;2022-12-08T09:37:27;94948.72;;;8.51;100.00
15477;BME280;7840;42.702;23.296;2022-12-08T09:39:55;94955.19;;;8.72;100.00
15477;BME280;7840;42.702;23.296;2022-12-08T09:42:39;94957.56;;;8.73;100.00
15477;BME280;7840;42.702;23.296;2022-12-08T09:45:11;94956.97;;;9.00;100.00
15477;BME280;7840;42.702;23.296;2022-12-08T09:47:42;94954.78;;;8.97;100.00
15477;BME280;7840;42.702;23.296;2022-12-08T09:50:21;94941.44;;;9.03;100.00
15477;BME280;7840;42.702;23.296;2022-12-08T09:53:02;94944.09;;;9.20;100.00
15477;BME280;7840;42.702;23.296;2022-12-08T09:55:39;94941.91;;;9.17;100.00
15477;BME280;7840;42.702;23.296;2022-12-08T09:58:18;94936.47;;;9.41;100.00
15477;BME280;7840;42.702;23.296;2022-12-08T10:00:47;94926.06;;;9.17;100.00
15477;BME280;7840;42.702;23.296;2022-12-08T10:03:20;94919.41;;;9.31;100.00
15477;BME280;7840;42.702;23.296;2022-12-08T10:05:54;94919.47;;;9.37;100.00
15477;BME280;7840;42.702;23.296;2022-12-08T10:08:40;94918.28;;;9.66;100.00
15477;BME280;7840;42.702;23.296;2022-12-08T10:11:15;94914.69;;;9.72;100.00
15477;BME280;7840;42.702;23.296;2022-12-08T10:14:05;94911.13;;;9.83;100.00
15477;BME280;7840;42.702;23.296;2022-12-08T10:16:40;94913.03;;;10.10;100.00
15477;BME280;7840;42.702;23.296;2022-12-08T10:19:14;94909.59;;;10.31;100.00
15477;BME280;7840;42.702;23.296;2022-12-08T10:21:44;94897.84;;;10.49;100.00
15477;BME280;7840;42.702;23.296;2022-12-08T10:26:39;94903.94;;;10.72;100.00
15477;BME280;7840;42.702;23.296;2022-12-08T10:29:12;94896.78;;;10.72;100.00
15477;BME280;7840;42.702;23.296;2022-12-08T10:31:39;94896.38;;;10.90;100.00
15477;BME280;7840;42.702;23.296;2022-12-08T10:34:27;94891.09;;;10.90;100.00
15477;BME280;7840;42.702;23.296;2022-12-08T10:37:00;94904.81;;;10.82;99.59
15477;BME280;7840;42.702;23.296;2022-12-08T10:39:41;94884.66;;;10.81;100.00
15477;BME280;7840;42.702;23.296;2022-12-08T10:42:18;94884.19;;;10.89;100.00
15477;BME280;7840;42.702;23.296;2022-12-08T10:45:24;94875.66;;;10.82;100.00
15477;BME280;7840;42.702;23.296;2022-12-08T10:48:03;94881.06;;;10.92;99.77
15477;BME280;7840;42.702;23.296;2022-12-08T10:50:42;94875.81;;;11.03;97.97
15477;BME280;7840;42.702;23.296;2022-12-08T10:56:15;94877.16;;;11.42;96.17
15477;BME280;7840;42.702;23.296;2022-12-08T10:58:45;94869.28;;;11.58;94.10
15477;BME280;7840;42.702;23.296;2022-12-08T11:01:16;94861.69;;;11.76;92.85
15477;BME280;7840;42.702;23.296;2022-12-08T11:03:48;94854.63;;;11.97;91.03
15477;BME280;7840;42.702;23.296;2022-12-08T11:06:20;94854.72;;;12.23;88.52
15477;BME280;7840;42.702;23.296;2022-12-08T11:08:51;94853.16;;;12.37;87.26
15477;BME280;7840;42.702;23.296;2022-12-08T11:11:43;94851.31;;;12.48;86.67
15477;BME280;7840;42.702;23.296;2022-12-08T11:14:17;94853.47;;;12.76;84.16
15477;BME280;7840;42.702;23.296;2022-12-08T11:16:51;94844.44;;;12.77;82.58
15477;BME280;7840;42.702;23.296;2022-12-08T11:19:21;94835.66;;;12.82;82.03
15477;BME280;7840;42.702;23.296;2022-12-08T11:21:57;94827.13;;;12.39;81.71
15477;BME280;7840;42.702;23.296;2022-12-08T11:24:27;94830.06;;;12.53;83.49
15477;BME280;7840;42.702;23.296;2022-12-08T11:26:59;94829.28;;;12.78;81.76
15477;BME280;7840;42.702;23.296;2022-12-08T11:29:41;94822.38;;;12.56;81.07
15477;BME280;7840;42.702;23.296;2022-12-08T11:32:13;94817.31;;;12.60;82.01
15477;BME280;7840;42.702;23.296;2022-12-08T11:34:56;94817.56;;;12.53;82.10
15477;BME280;7840;42.702;23.296;2022-12-08T11:37:36;94830.88;;;12.64;82.70
15477;BME280;7840;42.702;23.296;2022-12-08T11:40:22;94819.72;;;12.72;81.72
15477;BME280;7840;42.702;23.296;2022-12-08T11:43:00;94820.78;;;12.66;81.06
15477;BME280;7840;42.702;23.296;2022-12-08T11:45:35;94823.41;;;12.60;82.39
15477;BME280;7840;42.702;23.296;2022-12-08T11:48:29;94818.13;;;12.86;82.10
15477;BME280;7840;42.702;23.296;2022-12-08T11:51:04;94822.38;;;12.97;80.41
15477;BME280;7840;42.702;23.296;2022-12-08T11:53:38;94818.91;;;13.22;79.48
15477;BME280;7840;42.702;23.296;2022-12-08T11:56:15;94821.28;;;13.24;78.74
15477;BME280;7840;42.702;23.296;2022-12-08T11:58:47;94805.03;;;13.46;77.31
15477;BME280;7840;42.702;23.296;2022-12-08T12:01:19;94813.53;;;13.53;76.23
15477;BME280;7840;42.702;23.296;2022-12-08T12:03:58;94810.00;;;13.73;75.47
15477;BME280;7840;42.702;23.296;2022-12-08T12:06:48;94814.47;;;13.87;74.16
15477;BME280;7840;42.702;23.296;2022-12-08T12:09:30;94815.25;;;13.88;73.66
15477;BME280;7840;42.702;23.296;2022-12-08T12:12:08;94813.25;;;13.59;74.65
15477;BME280;7840;42.702;23.296;2022-12-08T12:15:16;94799.44;;;13.47;75.52
15477;BME280;7840;42.702;23.296;2022-12-08T12:17:53;94798.59;;;13.52;76.13
15477;BME280;7840;42.702;23.296;2022-12-08T12:20:29;94804.75;;;13.52;75.72
15477;BME280;7840;42.702;23.296;2022-12-08T12:23:17;94798.94;;;13.40;76.63
15477;BME280;7840;42.702;23.296;2022-12-08T12:25:57;94789.31;;;13.44;77.16
15477;BME280;7840;42.702;23.296;2022-12-08T12:28:28;94785.63;;;13.30;77.27
15477;BME280;7840;42.702;23.296;2022-12-08T12:31:00;94782.94;;;13.45;77.88
15477;BME280;7840;42.702;23.296;2022-12-08T12:33:30;94790.53;;;13.72;75.69
15477;BME280;7840;42.702;23.296;2022-12-08T12:36:02;94790.22;;;13.94;74.30
15477;BME280;7840;42.702;23.296;2022-12-08T12:38:35;94783.84;;;13.85;75.02
15477;BME280;7840;42.702;23.296;2022-12-08T12:41:25;94794.09;;;14.07;74.68
15477;BME280;7840;42.702;23.296;2022-12-08T12:44:20;94796.47;;;14.13;73.24
15477;BME280;7840;42.702;23.296;2022-12-08T12:47:13;94784.31;;;14.02;73.34
15477;BME280;7840;42.702;23.296;2022-12-08T12:50:10;94792.78;;;14.09;73.69
15477;BME280;7840;42.702;23.296;2022-12-08T12:52:45;94787.91;;;14.21;72.91
15477;BME280;7840;42.702;23.296;2022-12-08T13:04:17;94761.94;;;13.98;74.25
15477;BME280;7840;42.702;23.296;2022-12-08T13:06:47;94763.59;;;13.89;75.26
15477;BME280;7840;42.702;23.296;2022-12-08T13:09:21;94760.94;;;13.84;75.23
15477;BME280;7840;42.702;23.296;2022-12-08T13:12:08;94754.34;;;13.76;75.57
15477;BME280;7840;42.702;23.296;2022-12-08T13:14:44;94761.25;;;13.77;76.24
15477;BME280;7840;42.702;23.296;2022-12-08T13:17:21;94752.38;;;13.92;76.01
15477;BME280;7840;42.702;23.296;2022-12-08T13:19:55;94758.75;;;13.96;75.76
15477;BME280;7840;42.702;23.296;2022-12-08T13:22:47;94764.59;;;14.03;75.19
15477;BME280;7840;42.702;23.296;2022-12-08T13:25:52;94758.88;;;14.20;73.98
15477;BME280;7840;42.702;23.296;2022-12-08T13:29:10;94756.69;;;14.27;73.75
15477;BME280;7840;42.702;23.296;2022-12-08T13:31:46;94755.97;;;14.16;73.87
15477;BME280;7840;42.702;23.296;2022-12-08T13:34:19;94765.84;;;14.16;73.67
15477;BME280;7840;42.702;23.296;2022-12-08T13:37:00;94762.78;;;13.93;74.65
15477;BME280;7840;42.702;23.296;2022-12-08T13:39:34;94761.91;;;13.49;76.59
15477;BME280;7840;42.702;23.296;2022-12-08T13:42:16;94759.47;;;13.57;77.92
15477;BME280;7840;42.702;23.296;2022-12-08T13:44:47;94756.28;;;13.60;77.47
15477;BME280;7840;42.702;23.296;2022-12-08T13:47:26;94753.13;;;13.48;78.27
15477;BME280;7840;42.702;23.296;2022-12-08T13:50:12;94753.19;;;13.33;78.67
15477;BME280;7840;42.702;23.296;2022-12-08T13:52:44;94754.78;;;13.24;79.61
15477;BME280;7840;42.702;23.296;2022-12-08T13:55:20;94765.44;;;13.19;80.84